CGMTT EGEP-EGET
Flight info
| Callsign | CGMTT |
|---|---|
| Flight time | 0h 48m |
| Altitude | 4000 |
| Route | VP531 |
| Aircraft | BE24/L-SDE3/L |
Departure
| Time | 2026-04-20 18:04 |
|---|---|
| Airport | Papa Westray Airport (EGEP) |
Arrival
| Time | 2026-04-20 18:52 |
|---|---|
| Airport | Lerwick / Tingwall Airport (EGET) |
| Time | Latitude | Longitude | Altitude | Speed | Heading |
|---|---|---|---|---|---|
| 2026-04-20 17:56 | 59.35136 | -2.89889 | 91 ft | 0 kts | 63° |
| 2026-04-20 17:59 | 59.35131 | -2.89911 | 92 ft | 6 kts | 278° |
| 2026-04-20 17:59 | 59.35113 | -2.90011 | 91 ft | 10 kts | 211° |
| 2026-04-20 18:00 | 59.35043 | -2.90079 | 90 ft | 13 kts | 199° |
| 2026-04-20 18:00 | 59.34959 | -2.90161 | 86 ft | 14 kts | 210° |
| 2026-04-20 18:00 | 59.34913 | -2.90227 | 85 ft | 0 kts | 30° |
| 2026-04-20 18:01 | 59.34922 | -2.90216 | 85 ft | 13 kts | 28° |
| 2026-04-20 18:01 | 59.35139 | -2.89978 | 91 ft | 54 kts | 53° |
| 2026-04-20 18:02 | 59.35450 | -2.89498 | 200 ft | 58 kts | 56° |
| 2026-04-20 18:02 | 59.35779 | -2.88770 | 176 ft | 88 kts | 59° |
| 2026-04-20 18:02 | 59.36160 | -2.87798 | 323 ft | 80 kts | 60° |
| 2026-04-20 18:02 | 59.36621 | -2.87690 | 469 ft | 82 kts | 320° |
| 2026-04-20 18:03 | 59.37013 | -2.88418 | 474 ft | 75 kts | 11° |
| 2026-04-20 18:03 | 59.37410 | -2.88178 | 612 ft | 53 kts | 32° |
| 2026-04-20 18:03 | 59.37799 | -2.87956 | 646 ft | 53 kts | 33° |
| 2026-04-20 18:03 | 59.38163 | -2.87764 | 814 ft | 46 kts | 33° |
| 2026-04-20 18:04 | 59.38527 | -2.87577 | 852 ft | 55 kts | 33° |
| 2026-04-20 18:04 | 59.38901 | -2.87381 | 918 ft | 64 kts | 35° |
| 2026-04-20 18:04 | 59.39308 | -2.87098 | 1068 ft | 62 kts | 37° |
| 2026-04-20 18:04 | 59.39760 | -2.86700 | 1078 ft | 82 kts | 37° |
| 2026-04-20 18:05 | 59.40892 | -2.85551 | 1150 ft | 98 kts | 37° |
| 2026-04-20 18:05 | 59.41512 | -2.84908 | 1197 ft | 103 kts | 37° |
| 2026-04-20 18:05 | 59.42143 | -2.84198 | 1241 ft | 107 kts | 39° |
| 2026-04-20 18:06 | 59.42797 | -2.83451 | 1272 ft | 109 kts | 39° |
| 2026-04-20 18:06 | 59.43450 | -2.82670 | 1307 ft | 111 kts | 40° |
| 2026-04-20 18:06 | 59.44120 | -2.81895 | 1333 ft | 112 kts | 39° |
| 2026-04-20 18:06 | 59.44794 | -2.81110 | 1360 ft | 113 kts | 39° |
| 2026-04-20 18:07 | 59.45461 | -2.80283 | 1390 ft | 113 kts | 39° |
| 2026-04-20 18:07 | 59.46129 | -2.79462 | 1424 ft | 113 kts | 40° |
| 2026-04-20 18:07 | 59.46803 | -2.78671 | 1446 ft | 112 kts | 40° |
| 2026-04-20 18:07 | 59.47455 | -2.77863 | 1471 ft | 110 kts | 41° |
| 2026-04-20 18:08 | 59.48102 | -2.77046 | 1498 ft | 111 kts | 41° |
| 2026-04-20 18:08 | 59.48748 | -2.76214 | 1558 ft | 110 kts | 41° |
| 2026-04-20 18:08 | 59.49201 | -2.75630 | 1609 ft | 108 kts | 41° |
| 2026-04-20 18:08 | 59.49361 | -2.75425 | 1633 ft | 107 kts | 41° |
| 2026-04-20 18:09 | 59.49984 | -2.74641 | 1707 ft | 105 kts | 41° |
| 2026-04-20 18:09 | 59.50582 | -2.73829 | 1785 ft | 104 kts | 44° |
| 2026-04-20 18:09 | 59.51179 | -2.73026 | 1862 ft | 103 kts | 43° |
| 2026-04-20 18:09 | 59.51768 | -2.72219 | 1940 ft | 103 kts | 43° |
| 2026-04-20 18:10 | 59.52355 | -2.71419 | 2017 ft | 102 kts | 44° |
| 2026-04-20 18:10 | 59.52929 | -2.70610 | 2094 ft | 101 kts | 45° |
| 2026-04-20 18:10 | 59.53496 | -2.69804 | 2173 ft | 100 kts | 45° |
| 2026-04-20 18:10 | 59.54059 | -2.68986 | 2253 ft | 101 kts | 45° |
| 2026-04-20 18:11 | 59.54620 | -2.68148 | 2333 ft | 101 kts | 45° |
| 2026-04-20 18:11 | 59.55182 | -2.67309 | 2413 ft | 101 kts | 46° |
| 2026-04-20 18:11 | 59.55755 | -2.66481 | 2450 ft | 105 kts | 45° |
| 2026-04-20 18:11 | 59.56348 | -2.65627 | 2456 ft | 109 kts | 45° |
| 2026-04-20 18:12 | 59.56975 | -2.64711 | 2461 ft | 112 kts | 45° |
| 2026-04-20 18:12 | 59.57595 | -2.63795 | 2452 ft | 114 kts | 46° |
| 2026-04-20 18:12 | 59.58233 | -2.62866 | 2457 ft | 114 kts | 45° |
| 2026-04-20 18:12 | 59.58877 | -2.61934 | 2459 ft | 115 kts | 45° |
| 2026-04-20 18:13 | 59.59512 | -2.60990 | 2459 ft | 114 kts | 46° |
| 2026-04-20 18:13 | 59.60153 | -2.60067 | 2460 ft | 114 kts | 45° |
| 2026-04-20 18:13 | 59.60789 | -2.59132 | 2458 ft | 114 kts | 45° |
| 2026-04-20 18:13 | 59.61404 | -2.58152 | 2457 ft | 113 kts | 47° |
| 2026-04-20 18:14 | 59.62017 | -2.57168 | 2455 ft | 113 kts | 47° |
| 2026-04-20 18:14 | 59.62632 | -2.56176 | 2456 ft | 114 kts | 47° |
| 2026-04-20 18:14 | 59.63247 | -2.55191 | 2457 ft | 114 kts | 47° |
| 2026-04-20 18:14 | 59.63859 | -2.54204 | 2457 ft | 114 kts | 47° |
| 2026-04-20 18:15 | 59.64473 | -2.53214 | 2457 ft | 114 kts | 47° |
| 2026-04-20 18:15 | 59.65082 | -2.52236 | 2457 ft | 114 kts | 47° |
| 2026-04-20 18:15 | 59.65693 | -2.51252 | 2460 ft | 112 kts | 47° |
| 2026-04-20 18:15 | 59.66294 | -2.50266 | 2461 ft | 113 kts | 47° |
| 2026-04-20 18:16 | 59.66902 | -2.49272 | 2462 ft | 114 kts | 47° |
| 2026-04-20 18:16 | 59.67517 | -2.48276 | 2462 ft | 114 kts | 47° |
| 2026-04-20 18:16 | 59.68125 | -2.47268 | 2462 ft | 114 kts | 47° |
| 2026-04-20 18:16 | 59.68738 | -2.46262 | 2463 ft | 114 kts | 47° |
| 2026-04-20 18:17 | 59.69353 | -2.45258 | 2464 ft | 114 kts | 47° |
| 2026-04-20 18:17 | 59.69971 | -2.44252 | 2465 ft | 115 kts | 47° |
| 2026-04-20 18:17 | 59.70591 | -2.43246 | 2466 ft | 115 kts | 47° |
| 2026-04-20 18:17 | 59.71211 | -2.42240 | 2464 ft | 115 kts | 47° |
| 2026-04-20 18:18 | 59.71818 | -2.41253 | 2466 ft | 113 kts | 47° |
| 2026-04-20 18:18 | 59.72426 | -2.40261 | 2464 ft | 113 kts | 47° |
| 2026-04-20 18:18 | 59.73042 | -2.39269 | 2465 ft | 113 kts | 47° |
| 2026-04-20 18:18 | 59.73636 | -2.38278 | 2464 ft | 111 kts | 51° |
| 2026-04-20 18:19 | 59.74193 | -2.37217 | 2464 ft | 111 kts | 51° |
| 2026-04-20 18:19 | 59.74757 | -2.36168 | 2464 ft | 111 kts | 51° |
| 2026-04-20 18:19 | 59.75319 | -2.35119 | 2467 ft | 111 kts | 51° |
| 2026-04-20 18:19 | 59.75879 | -2.34045 | 2468 ft | 112 kts | 52° |
| 2026-04-20 18:20 | 59.76443 | -2.32966 | 2466 ft | 113 kts | 51° |
| 2026-04-20 18:20 | 59.77007 | -2.31871 | 2466 ft | 114 kts | 51° |
| 2026-04-20 18:20 | 59.77582 | -2.30774 | 2467 ft | 114 kts | 51° |
| 2026-04-20 18:20 | 59.78157 | -2.29687 | 2468 ft | 114 kts | 52° |
| 2026-04-20 18:21 | 59.78733 | -2.28606 | 2467 ft | 114 kts | 51° |
| 2026-04-20 18:21 | 59.79248 | -2.27439 | 2467 ft | 111 kts | 58° |
| 2026-04-20 18:21 | 59.79747 | -2.26260 | 2467 ft | 111 kts | 57° |
| 2026-04-20 18:21 | 59.80239 | -2.25096 | 2469 ft | 112 kts | 57° |
| 2026-04-20 18:22 | 59.80744 | -2.23902 | 2468 ft | 113 kts | 57° |
| 2026-04-20 18:22 | 59.81216 | -2.22662 | 2475 ft | 111 kts | 63° |
| 2026-04-20 18:22 | 59.81656 | -2.21395 | 2474 ft | 111 kts | 63° |
| 2026-04-20 18:22 | 59.82097 | -2.20125 | 2475 ft | 112 kts | 62° |
| 2026-04-20 18:23 | 59.82537 | -2.18845 | 2476 ft | 112 kts | 62° |
| 2026-04-20 18:23 | 59.82978 | -2.17559 | 2476 ft | 112 kts | 62° |
| 2026-04-20 18:23 | 59.83419 | -2.16275 | 2476 ft | 112 kts | 63° |
| 2026-04-20 18:23 | 59.83859 | -2.15004 | 2474 ft | 111 kts | 63° |
| 2026-04-20 18:24 | 59.84259 | -2.13845 | 2477 ft | 111 kts | 62° |
| 2026-04-20 18:24 | 59.84693 | -2.12582 | 2477 ft | 110 kts | 62° |
| 2026-04-20 18:24 | 59.85128 | -2.11318 | 2478 ft | 111 kts | 62° |
| 2026-04-20 18:24 | 59.85559 | -2.10058 | 2481 ft | 111 kts | 63° |
| 2026-04-20 18:25 | 59.85999 | -2.08786 | 2481 ft | 112 kts | 62° |
| 2026-04-20 18:25 | 59.86431 | -2.07517 | 2479 ft | 109 kts | 63° |
| 2026-04-20 18:25 | 59.86843 | -2.06313 | 2434 ft | 103 kts | 63° |
| 2026-04-20 18:25 | 59.87242 | -2.05123 | 2312 ft | 104 kts | 63° |
| 2026-04-20 18:26 | 59.87637 | -2.03900 | 2203 ft | 105 kts | 64° |
| 2026-04-20 18:26 | 59.88024 | -2.02666 | 2096 ft | 105 kts | 64° |
| 2026-04-20 18:26 | 59.88402 | -2.01426 | 1989 ft | 105 kts | 65° |
| 2026-04-20 18:26 | 59.88771 | -2.00178 | 1883 ft | 104 kts | 66° |
| 2026-04-20 18:27 | 59.89145 | -1.98951 | 1786 ft | 103 kts | 60° |
| 2026-04-20 18:27 | 59.89565 | -1.97843 | 1782 ft | 98 kts | 59° |
| 2026-04-20 18:27 | 59.89949 | -1.96775 | 1770 ft | 92 kts | 64° |
| 2026-04-20 18:27 | 59.90286 | -1.95729 | 1770 ft | 88 kts | 64° |
| 2026-04-20 18:28 | 59.90591 | -1.94706 | 1775 ft | 87 kts | 65° |
| 2026-04-20 18:28 | 59.90900 | -1.93674 | 1775 ft | 86 kts | 65° |
| 2026-04-20 18:28 | 59.91208 | -1.92649 | 1775 ft | 86 kts | 65° |
| 2026-04-20 18:28 | 59.91511 | -1.91642 | 1774 ft | 83 kts | 65° |
| 2026-04-20 18:29 | 59.91799 | -1.90653 | 1774 ft | 82 kts | 66° |
| 2026-04-20 18:29 | 59.92090 | -1.89693 | 1774 ft | 81 kts | 65° |
| 2026-04-20 18:29 | 59.92383 | -1.88727 | 1775 ft | 82 kts | 65° |
| 2026-04-20 18:29 | 59.92675 | -1.87763 | 1775 ft | 81 kts | 65° |
| 2026-04-20 18:30 | 59.92955 | -1.86795 | 1775 ft | 80 kts | 65° |
| 2026-04-20 18:30 | 59.93236 | -1.85835 | 1777 ft | 80 kts | 65° |
| 2026-04-20 18:30 | 59.93518 | -1.84886 | 1777 ft | 80 kts | 65° |
| 2026-04-20 18:30 | 59.93806 | -1.83941 | 1775 ft | 79 kts | 65° |
| 2026-04-20 18:31 | 59.93996 | -1.83317 | 1779 ft | 79 kts | 65° |
| 2026-04-20 18:31 | 59.94280 | -1.82373 | 1787 ft | 79 kts | 65° |
| 2026-04-20 18:31 | 59.94555 | -1.81424 | 1788 ft | 79 kts | 65° |
| 2026-04-20 18:31 | 59.94834 | -1.80490 | 1787 ft | 78 kts | 65° |
| 2026-04-20 18:32 | 59.95108 | -1.79558 | 1789 ft | 78 kts | 65° |
| 2026-04-20 18:32 | 59.95352 | -1.78599 | 1787 ft | 78 kts | 72° |
| 2026-04-20 18:32 | 59.95569 | -1.77603 | 1788 ft | 79 kts | 72° |
| 2026-04-20 18:32 | 59.95790 | -1.76604 | 1788 ft | 79 kts | 71° |
| 2026-04-20 18:33 | 59.96007 | -1.75607 | 1789 ft | 78 kts | 71° |
| 2026-04-20 18:33 | 59.96199 | -1.74608 | 1788 ft | 77 kts | 75° |
| 2026-04-20 18:33 | 59.96378 | -1.73616 | 1790 ft | 75 kts | 76° |
| 2026-04-20 18:33 | 59.96557 | -1.72644 | 1791 ft | 74 kts | 75° |
| 2026-04-20 18:34 | 59.96715 | -1.71677 | 1789 ft | 73 kts | 79° |
| 2026-04-20 18:34 | 59.96857 | -1.70711 | 1788 ft | 73 kts | 76° |
| 2026-04-20 18:34 | 59.97026 | -1.69765 | 1790 ft | 71 kts | 76° |
| 2026-04-20 18:34 | 59.97217 | -1.68860 | 1791 ft | 70 kts | 72° |
| 2026-04-20 18:35 | 59.97417 | -1.67969 | 1789 ft | 70 kts | 72° |
| 2026-04-20 18:35 | 59.97629 | -1.67097 | 1791 ft | 70 kts | 70° |
| 2026-04-20 18:35 | 59.97838 | -1.66212 | 1792 ft | 71 kts | 70° |
| 2026-04-20 18:35 | 59.98054 | -1.65316 | 1793 ft | 72 kts | 70° |
| 2026-04-20 18:36 | 59.98268 | -1.64427 | 1792 ft | 72 kts | 70° |
| 2026-04-20 18:36 | 59.98505 | -1.63548 | 1792 ft | 72 kts | 67° |
| 2026-04-20 18:36 | 59.98755 | -1.62692 | 1791 ft | 70 kts | 67° |
| 2026-04-20 18:36 | 59.99000 | -1.61858 | 1793 ft | 69 kts | 66° |
| 2026-04-20 18:37 | 59.99247 | -1.61018 | 1792 ft | 71 kts | 66° |
| 2026-04-20 18:37 | 59.99500 | -1.60170 | 1795 ft | 72 kts | 64° |
| 2026-04-20 18:37 | 59.99768 | -1.59330 | 1797 ft | 72 kts | 64° |
| 2026-04-20 18:37 | 60.00039 | -1.58486 | 1796 ft | 72 kts | 64° |
| 2026-04-20 18:38 | 60.00308 | -1.57649 | 1796 ft | 72 kts | 65° |
| 2026-04-20 18:38 | 60.00582 | -1.56817 | 1795 ft | 72 kts | 64° |
| 2026-04-20 18:38 | 60.00857 | -1.55987 | 1796 ft | 72 kts | 64° |
| 2026-04-20 18:38 | 60.01150 | -1.55164 | 1795 ft | 72 kts | 63° |
| 2026-04-20 18:39 | 60.01454 | -1.54376 | 1794 ft | 71 kts | 59° |
| 2026-04-20 18:39 | 60.01753 | -1.53634 | 1791 ft | 63 kts | 59° |
| 2026-04-20 18:39 | 60.02017 | -1.53007 | 1715 ft | 61 kts | 59° |
| 2026-04-20 18:39 | 60.02284 | -1.52375 | 1656 ft | 59 kts | 59° |
| 2026-04-20 18:40 | 60.02559 | -1.51742 | 1589 ft | 59 kts | 59° |
| 2026-04-20 18:40 | 60.02832 | -1.51087 | 1496 ft | 61 kts | 59° |
| 2026-04-20 18:40 | 60.03108 | -1.50447 | 1410 ft | 62 kts | 56° |
| 2026-04-20 18:40 | 60.03397 | -1.49844 | 1315 ft | 62 kts | 52° |
| 2026-04-20 18:41 | 60.03698 | -1.49254 | 1237 ft | 60 kts | 52° |
| 2026-04-20 18:41 | 60.04004 | -1.48683 | 1179 ft | 57 kts | 52° |
| 2026-04-20 18:41 | 60.04305 | -1.48113 | 1065 ft | 60 kts | 52° |
| 2026-04-20 18:41 | 60.04610 | -1.47540 | 992 ft | 61 kts | 54° |
| 2026-04-20 18:42 | 60.04879 | -1.46887 | 947 ft | 61 kts | 56° |
| 2026-04-20 18:42 | 60.05155 | -1.46262 | 892 ft | 60 kts | 54° |
| 2026-04-20 18:42 | 60.05420 | -1.45601 | 822 ft | 62 kts | 60° |
| 2026-04-20 18:42 | 60.05688 | -1.44923 | 762 ft | 61 kts | 58° |
| 2026-04-20 18:43 | 60.05945 | -1.44255 | 719 ft | 61 kts | 59° |
| 2026-04-20 18:43 | 60.06200 | -1.43576 | 682 ft | 60 kts | 61° |
| 2026-04-20 18:43 | 60.06432 | -1.42915 | 655 ft | 56 kts | 60° |
| 2026-04-20 18:43 | 60.06646 | -1.42282 | 682 ft | 54 kts | 63° |
| 2026-04-20 18:44 | 60.06851 | -1.41621 | 695 ft | 59 kts | 66° |
| 2026-04-20 18:44 | 60.07006 | -1.40879 | 754 ft | 56 kts | 78° |
| 2026-04-20 18:44 | 60.07143 | -1.40151 | 784 ft | 57 kts | 70° |
| 2026-04-20 18:44 | 60.07315 | -1.39457 | 798 ft | 56 kts | 64° |
| 2026-04-20 18:45 | 60.07608 | -1.38873 | 712 ft | 64 kts | 42° |
| 2026-04-20 18:45 | 60.07979 | -1.38269 | 753 ft | 69 kts | 51° |
| 2026-04-20 18:45 | 60.08307 | -1.37633 | 764 ft | 62 kts | 50° |
| 2026-04-20 18:45 | 60.08640 | -1.37046 | 815 ft | 67 kts | 50° |
| 2026-04-20 18:46 | 60.08981 | -1.36352 | 860 ft | 72 kts | 51° |
| 2026-04-20 18:46 | 60.09336 | -1.35615 | 863 ft | 75 kts | 56° |
| 2026-04-20 18:46 | 60.09636 | -1.34804 | 826 ft | 72 kts | 57° |
| 2026-04-20 18:46 | 60.09948 | -1.34011 | 775 ft | 73 kts | 62° |
| 2026-04-20 18:47 | 60.10231 | -1.33145 | 693 ft | 74 kts | 61° |
| 2026-04-20 18:47 | 60.10537 | -1.32342 | 690 ft | 70 kts | 56° |
| 2026-04-20 18:47 | 60.10842 | -1.31593 | 697 ft | 70 kts | 58° |
| 2026-04-20 18:47 | 60.11132 | -1.30846 | 732 ft | 68 kts | 53° |
| 2026-04-20 18:48 | 60.11472 | -1.30181 | 670 ft | 70 kts | 50° |
| 2026-04-20 18:48 | 60.11833 | -1.29528 | 625 ft | 70 kts | 47° |
| 2026-04-20 18:48 | 60.12201 | -1.28924 | 543 ft | 64 kts | 48° |
| 2026-04-20 18:48 | 60.12520 | -1.28314 | 499 ft | 61 kts | 54° |
| 2026-04-20 18:49 | 60.12831 | -1.27740 | 369 ft | 63 kts | 41° |
| 2026-04-20 18:49 | 60.13202 | -1.27352 | 370 ft | 61 kts | 32° |
| 2026-04-20 18:49 | 60.13622 | -1.27098 | 315 ft | 63 kts | 22° |
| 2026-04-20 18:49 | 60.14023 | -1.26839 | 268 ft | 61 kts | 24° |
| 2026-04-20 18:50 | 60.14411 | -1.26571 | 274 ft | 58 kts | 26° |
| 2026-04-20 18:50 | 60.14825 | -1.26409 | 334 ft | 60 kts | 17° |
| 2026-04-20 18:50 | 60.15240 | -1.26263 | 358 ft | 61 kts | 18° |
| 2026-04-20 18:50 | 60.15670 | -1.26052 | 416 ft | 68 kts | 23° |
| 2026-04-20 18:51 | 60.16148 | -1.25809 | 436 ft | 72 kts | 25° |
| 2026-04-20 18:51 | 60.16636 | -1.25551 | 428 ft | 72 kts | 18° |
| 2026-04-20 18:51 | 60.17102 | -1.25353 | 368 ft | 65 kts | 22° |
| 2026-04-20 18:51 | 60.17526 | -1.25138 | 324 ft | 61 kts | 20° |
| 2026-04-20 18:52 | 60.17932 | -1.24966 | 245 ft | 58 kts | 17° |
| 2026-04-20 18:52 | 60.18319 | -1.24779 | 166 ft | 55 kts | 19° |
| 2026-04-20 18:52 | 60.18691 | -1.24610 | 94 ft | 55 kts | 20° |
| 2026-04-20 18:52 | 60.19045 | -1.24445 | 41 ft | 48 kts | 20° |
| 2026-04-20 18:53 | 60.19243 | -1.24327 | 29 ft | 13 kts | 6° |
| 2026-04-20 18:53 | 60.19206 | -1.24369 | 31 ft | 14 kts | 188° |
| 2026-04-20 18:53 | 60.19089 | -1.24424 | 39 ft | 19 kts | 194° |
| 2026-04-20 18:53 | 60.18947 | -1.24486 | 40 ft | 22 kts | 194° |
| 2026-04-20 18:54 | 60.18888 | -1.24535 | 43 ft | 4 kts | 219° |
| 2026-04-20 18:54 | 60.18877 | -1.24577 | 43 ft | 3 kts | 271° |
| 2026-04-20 18:54 | 60.18878 | -1.24601 | 43 ft | 0 kts | 282° |